Time;durP1;ratioP1;P1;durP2;ratioP2;P2;SDS_P1;SDS_P2;PMS_P1;PMS_P2;Temp;Humidity;BMP_temperature;BMP_pressure;BME280_temperature;BME280_humidity;BME280_pressure;Samples;Min_cycle;Max_cycle;Signal;HPM_P1;HPM_P2
2022/10/02 00:01:25;;;;;;;0.00;0.00;;;11.30;99.90;;;;;;5001881;28;20547;-68
2022/10/02 00:03:53;;;;;;;0.00;0.00;;;11.30;99.90;;;;;;5016220;28;20458;-68
2022/10/02 00:06:25;;;;;;;0.00;0.00;;;11.20;99.90;;;;;;5016540;28;20442;-68
2022/10/02 00:08:59;;;;;;;0.00;0.00;;;11.30;99.90;;;;;;5016197;28;20437;-70
2022/10/02 00:11:36;;;;;;;0.00;0.00;;;11.30;99.90;;;;;;5016895;28;20478;-72
2022/10/02 00:14:05;;;;;;;0.00;0.00;;;11.40;99.90;;;;;;5016917;28;20437;-67
2022/10/02 00:16:37;;;;;;;0.00;0.00;;;11.50;99.90;;;;;;5002308;28;20961;-69
2022/10/02 00:19:06;;;;;;;0.00;0.00;;;11.60;99.90;;;;;;5030462;28;20453;-70
2022/10/02 00:21:46;;;;;;;0.00;0.00;;;11.60;99.90;;;;;;5013996;28;20482;-69
2022/10/02 00:24:17;;;;;;;0.00;0.00;;;11.70;99.90;;;;;;5019941;28;20444;-68
2022/10/02 00:26:52;;;;;;;0.00;0.00;;;11.70;99.90;;;;;;5004125;28;20521;-69
2022/10/02 00:29:32;;;;;;;0.00;0.00;;;11.80;99.90;;;;;;5003563;28;20948;-68
2022/10/02 00:32:15;;;;;;;0.00;0.00;;;11.80;99.90;;;;;;5016078;28;20441;-69
2022/10/02 00:35:00;;;;;;;0.00;0.00;;;11.90;99.90;;;;;;5003116;28;20830;-69
2022/10/02 00:37:37;;;;;;;0.00;0.00;;;11.90;99.90;;;;;;4996273;28;20437;-69
2022/10/02 00:40:29;;;;;;;0.00;0.00;;;11.90;99.90;;;;;;4995635;28;21040;-68
2022/10/02 00:43:06;;;;;;;0.00;0.00;;;12.00;99.90;;;;;;4996146;28;20485;-69
2022/10/02 00:45:53;;;;;;;0.00;0.00;;;12.00;99.90;;;;;;5014420;28;20869;-69
2022/10/02 00:48:38;;;;;;;0.00;0.00;;;12.10;99.90;;;;;;5015303;28;20434;-69
2022/10/02 00:51:17;;;;;;;0.00;0.00;;;12.10;99.90;;;;;;5015411;28;20524;-69
2022/10/02 00:53:56;;;;;;;0.00;0.00;;;12.10;99.90;;;;;;5015432;28;20511;-69
2022/10/02 00:56:30;;;;;;;0.00;0.00;;;12.10;99.90;;;;;;5015306;28;20845;-69
2022/10/02 00:59:12;;;;;;;0.00;0.00;;;12.30;99.90;;;;;;4998691;28;21004;-68
2022/10/02 01:01:46;;;;;;;0.00;0.00;;;12.40;99.90;;;;;;4995823;28;20466;-69
2022/10/02 01:04:18;;;;;;;0.00;0.00;;;12.40;99.90;;;;;;4995704;28;20454;-69
2022/10/02 01:06:46;;;;;;;0.00;0.00;;;12.50;99.90;;;;;;4996456;28;20842;-69
2022/10/02 01:09:15;;;;;;;0.00;0.00;;;12.50;99.90;;;;;;4995325;28;20447;-68
2022/10/02 01:11:43;;;;;;;0.00;0.00;;;12.50;99.90;;;;;;4995574;28;20513;-69
2022/10/02 01:14:13;;;;;;;0.00;0.00;;;12.50;99.90;;;;;;4995513;28;20443;-67
2022/10/02 01:16:41;;;;;;;0.00;0.00;;;12.60;99.90;;;;;;4995399;28;20509;-70
2022/10/02 01:19:25;;;;;;;0.00;0.00;;;12.70;99.90;;;;;;4995276;28;20439;-69
2022/10/02 01:21:59;;;;;;;0.00;0.00;;;12.70;99.90;;;;;;4998684;28;20531;-67
2022/10/02 01:24:34;;;;;;;0.00;0.00;;;12.60;99.90;;;;;;5006009;28;20465;-68
2022/10/02 01:27:03;;;;;;;0.00;0.00;;;12.60;99.90;;;;;;4995314;28;20465;-70
2022/10/02 01:29:31;;;;;;;0.00;0.00;;;12.60;99.90;;;;;;4997027;28;20475;-70
2022/10/02 01:31:59;;;;;;;0.00;0.00;;;12.70;99.90;;;;;;4994829;28;20512;-70
2022/10/02 01:34:27;;;;;;;0.00;0.00;;;12.70;99.90;;;;;;4994870;28;20476;-70
2022/10/02 01:36:55;;;;;;;0.00;0.00;;;12.70;99.90;;;;;;4994434;28;20446;-70
2022/10/02 01:39:23;;;;;;;0.00;0.00;;;12.70;99.90;;;;;;4994116;28;20970;-69
2022/10/02 01:41:50;;;;;;;0.00;0.00;;;12.70;99.90;;;;;;4994629;28;20478;-70
2022/10/02 01:44:19;;;;;;;0.00;0.00;;;12.70;99.90;;;;;;4995617;28;20521;-67
2022/10/02 01:46:55;;;;;;;0.00;0.00;;;12.60;99.90;;;;;;5002586;28;20990;-67
2022/10/02 01:49:39;;;;;;;0.00;0.00;;;12.60;99.90;;;;;;5007100;28;20458;-69
2022/10/02 01:52:24;;;;;;;0.00;0.00;;;12.60;99.90;;;;;;5008360;28;20446;-69
2022/10/02 01:55:06;;;;;;;0.00;0.00;;;12.50;99.90;;;;;;5006005;28;20446;-69
2022/10/02 01:57:53;;;;;;;0.00;0.00;;;12.50;99.90;;;;;;5002833;28;20447;-69
2022/10/02 02:00:25;;;;;;;0.00;0.00;;;12.40;99.90;;;;;;4998615;28;21016;-68
2022/10/02 02:03:02;;;;;;;0.00;0.00;;;12.50;99.90;;;;;;4999178;28;21047;-69
2022/10/02 02:05:41;;;;;;;0.00;0.00;;;12.40;99.90;;;;;;5006086;28;20459;-69
2022/10/02 02:08:14;;;;;;;0.00;0.00;;;12.40;99.90;;;;;;4997618;28;20459;-69
2022/10/02 02:10:52;;;;;;;0.00;0.00;;;12.30;99.90;;;;;;5009930;28;20479;-69
2022/10/02 02:13:26;;;;;;;0.00;0.00;;;12.20;99.90;;;;;;4993907;28;20923;-69
2022/10/02 02:18:59;;;;;;;0.00;0.00;;;12.10;99.90;;;;;;5795073;22;20590;-87
2022/10/02 02:21:30;;;;;;;0.00;0.00;;;12.10;99.90;;;;;;5040305;28;20453;-88
2022/10/02 02:24:02;;;;;;;0.00;0.00;;;12.10;99.90;;;;;;5040521;28;20477;-88
2022/10/02 02:26:30;;;;;;;0.00;0.00;;;12.10;99.90;;;;;;5038825;28;20962;-87
2022/10/02 02:29:03;;;;;;;0.00;0.00;;;12.20;99.90;;;;;;5030697;28;20480;-87
2022/10/02 02:31:36;;;;;;;0.00;0.00;;;12.20;99.90;;;;;;5039393;28;20453;-88
2022/10/02 02:34:11;;;;;;;0.00;0.00;;;12.20;99.90;;;;;;5038774;28;20445;-87
2022/10/02 02:36:43;;;;;;;0.00;0.00;;;12.20;99.90;;;;;;5040611;28;20453;-86
2022/10/02 02:39:14;;;;;;;0.00;0.00;;;12.10;99.90;;;;;;5036652;28;20485;-87
2022/10/02 02:41:46;;;;;;;0.00;0.00;;;12.00;99.90;;;;;;5039813;28;20453;-87
2022/10/02 02:44:21;;;;;;;0.00;0.00;;;11.90;99.90;;;;;;5040450;28;20483;-87
2022/10/02 02:47:03;;;;;;;0.00;0.00;;;11.80;99.90;;;;;;5026725;28;20457;-85
2022/10/02 02:49:40;;;;;;;0.00;0.00;;;11.80;99.90;;;;;;5041884;28;20535;-85
2022/10/02 02:52:13;;;;;;;0.00;0.00;;;11.80;99.90;;;;;;5046506;28;20939;-85
2022/10/02 02:54:45;;;;;;;0.00;0.00;;;11.80;99.90;;;;;;5051670;28;20440;-86
2022/10/02 02:57:15;;;;;;;0.00;0.00;;;11.80;99.90;;;;;;5023946;28;20909;-87
2022/10/02 02:59:45;;;;;;;0.00;0.00;;;11.90;99.90;;;;;;5019753;28;20462;-87
2022/10/02 03:02:13;;;;;;;0.00;0.00;;;12.00;99.90;;;;;;5019784;28;20450;-86
2022/10/02 03:04:42;;;;;;;0.00;0.00;;;12.00;99.90;;;;;;5023869;28;20466;-86
2022/10/02 03:07:15;;;;;;;0.00;0.00;;;12.00;99.90;;;;;;5023899;28;20450;-87
2022/10/02 03:09:53;;;;;;;0.00;0.00;;;12.00;99.90;;;;;;5023605;28;20481;-86
2022/10/02 03:12:32;;;;;;;0.00;0.00;;;12.00;99.90;;;;;;5022087;28;20500;-86
2022/10/02 03:15:14;;;;;;;0.00;0.00;;;12.00;99.90;;;;;;5016754;28;20477;-86
2022/10/02 03:18:06;;;;;;;0.00;0.00;;;12.00;99.90;;;;;;5016012;28;20418;-86
2022/10/02 03:20:43;;;;;;;0.00;0.00;;;12.00;99.90;;;;;;5015187;28;20474;-87
2022/10/02 03:23:21;;;;;;;0.00;0.00;;;12.10;99.90;;;;;;5018188;28;20504;-87
2022/10/02 03:25:53;;;;;;;0.00;0.00;;;12.10;99.90;;;;;;5018924;28;20438;-87
2022/10/02 03:28:27;;;;;;;0.00;0.00;;;12.10;99.90;;;;;;5018004;28;20500;-87
2022/10/02 03:31:16;;;;;;;0.00;0.00;;;12.20;99.90;;;;;;5027942;28;20507;-87
2022/10/02 03:33:45;;;;;;;0.00;0.00;;;12.20;99.90;;;;;;5038593;28;20435;-87
2022/10/02 03:36:16;;;;;;;0.00;0.00;;;12.20;99.90;;;;;;5026252;28;20485;-86
2022/10/02 03:38:45;;;;;;;0.00;0.00;;;12.20;99.90;;;;;;5020768;28;20442;-87
2022/10/02 03:41:33;;;;;;;0.00;0.00;;;12.10;99.90;;;;;;5021907;28;20510;-86
2022/10/02 03:44:01;;;;;;;0.00;0.00;;;12.10;99.90;;;;;;5021769;28;20493;-87
2022/10/02 03:46:29;;;;;;;0.00;0.00;;;12.10;99.90;;;;;;5021967;28;20457;-87
2022/10/02 03:48:57;;;;;;;0.00;0.00;;;12.20;99.90;;;;;;5022306;28;20445;-86
2022/10/02 03:51:26;;;;;;;0.00;0.00;;;12.20;99.90;;;;;;5022810;28;20781;-86
2022/10/02 03:53:57;;;;;;;0.00;0.00;;;12.10;99.90;;;;;;5021646;28;20972;-87
2022/10/02 03:56:34;;;;;;;0.00;0.00;;;12.10;99.90;;;;;;5021006;28;20524;-87
2022/10/02 03:59:10;;;;;;;0.00;0.00;;;12.00;99.90;;;;;;5022375;28;20422;-86
2022/10/02 04:01:42;;;;;;;0.00;0.00;;;11.90;99.90;;;;;;5029168;28;20452;-86
2022/10/02 04:04:19;;;;;;;0.00;0.00;;;11.80;99.90;;;;;;5041219;28;20485;-86
2022/10/02 04:06:55;;;;;;;0.00;0.00;;;11.70;99.90;;;;;;5041546;28;20413;-87
2022/10/02 04:09:29;;;;;;;0.00;0.00;;;11.60;99.90;;;;;;5041439;28;20522;-86
2022/10/02 04:12:00;;;;;;;0.00;0.00;;;11.60;99.90;;;;;;5041914;28;20421;-86
2022/10/02 04:14:34;;;;;;;0.00;0.00;;;11.50;99.90;;;;;;5041560;28;20447;-86
2022/10/02 04:17:07;;;;;;;0.00;0.00;;;11.40;99.90;;;;;;5041315;28;20441;-86
2022/10/02 04:19:40;;;;;;;0.00;0.00;;;11.40;99.90;;;;;;5040454;28;20483;-87
2022/10/02 04:22:18;;;;;;;0.00;0.00;;;11.30;99.90;;;;;;5041610;28;20452;-86
2022/10/02 04:24:49;;;;;;;0.00;0.00;;;11.20;99.90;;;;;;5041459;28;20463;-86
2022/10/02 04:27:22;;;;;;;0.00;0.00;;;11.20;99.90;;;;;;5040717;28;20437;-88
2022/10/02 04:29:53;;;;;;;0.00;0.00;;;11.10;99.90;;;;;;5040662;28;20473;-86
2022/10/02 04:32:25;;;;;;;0.00;0.00;;;11.10;99.90;;;;;;5041069;28;20448;-86
2022/10/02 04:34:53;;;;;;;0.00;0.00;;;11.10;99.90;;;;;;5038328;28;20556;-86
2022/10/02 04:37:38;;;;;;;0.00;0.00;;;11.10;99.90;;;;;;5039385;28;20798;-87
2022/10/02 04:40:34;;;;;;;0.00;0.00;;;11.00;99.90;;;;;;5022378;28;20482;-87
2022/10/02 04:43:17;;;;;;;0.00;0.00;;;10.90;99.90;;;;;;5040886;28;20453;-86
2022/10/02 04:45:58;;;;;;;0.00;0.00;;;10.90;99.90;;;;;;5041456;28;20409;-86
2022/10/02 04:48:57;;;;;;;0.00;0.00;;;10.90;99.90;;;;;;5029063;28;20482;-87
2022/10/02 04:51:39;;;;;;;0.00;0.00;;;11.00;99.90;;;;;;5021740;28;20441;-87
2022/10/02 04:54:32;;;;;;;0.00;0.00;;;11.00;99.90;;;;;;5020035;28;20843;-83
2022/10/02 04:57:19;;;;;;;0.00;0.00;;;11.00;99.90;;;;;;5020079;28;20446;-84
2022/10/02 05:00:00;;;;;;;0.00;0.00;;;11.10;99.90;;;;;;5019679;28;20489;-84
2022/10/02 05:02:40;;;;;;;0.00;0.00;;;11.10;99.90;;;;;;5019577;28;20453;-83
2022/10/02 05:05:23;;;;;;;0.00;0.00;;;11.10;99.90;;;;;;5036102;28;20480;-83
2022/10/02 05:08:22;;;;;;;0.00;0.00;;;11.10;99.90;;;;;;5038861;28;20437;-83
2022/10/02 05:11:03;;;;;;;0.00;0.00;;;11.10;99.90;;;;;;5028731;28;20470;-83
2022/10/02 05:13:52;;;;;;;0.00;0.00;;;11.10;99.90;;;;;;5019377;28;20810;-84
2022/10/02 05:16:46;;;;;;;0.00;0.00;;;11.10;99.90;;;;;;5019573;28;20442;-88
2022/10/02 05:19:53;;;;;;;0.00;0.00;;;11.10;99.90;;;;;;5021971;28;20474;-87
2022/10/02 05:22:52;;;;;;;0.00;0.00;;;11.20;99.90;;;;;;4961052;29;20464;-86
2022/10/02 05:33:37;;;;;;;0.00;0.00;;;11.10;99.90;;;;;;4939232;29;20919;-88
2022/10/02 05:36:37;;;;;;;0.00;0.00;;;11.10;99.90;;;;;;4939300;29;20461;-86
2022/10/02 05:39:17;;;;;;;0.00;0.00;;;11.10;99.90;;;;;;4955714;28;20473;-87
2022/10/02 05:41:56;;;;;;;0.00;0.00;;;11.10;99.90;;;;;;4946577;29;20934;-88
2022/10/02 05:44:34;;;;;;;0.00;0.00;;;11.10;99.90;;;;;;4949519;29;20484;-86
2022/10/02 05:47:13;;;;;;;0.00;0.00;;;11.10;99.90;;;;;;4957432;29;20548;-88
2022/10/02 05:50:04;;;;;;;0.00;0.00;;;11.10;99.90;;;;;;4948727;28;20498;-87
2022/10/02 05:52:43;;;;;;;0.00;0.00;;;11.20;99.90;;;;;;4942290;29;20961;-87
2022/10/02 05:55:19;;;;;;;0.00;0.00;;;11.30;99.90;;;;;;4961452;29;20520;-87
2022/10/02 05:57:57;;;;;;;0.00;0.00;;;11.40;99.90;;;;;;4960313;29;20468;-86
2022/10/02 06:00:32;;;;;;;0.00;0.00;;;11.40;99.90;;;;;;5016513;28;20481;-88
2022/10/02 06:03:10;;;;;;;0.00;0.00;;;11.50;99.90;;;;;;5022482;28;20525;-86
2022/10/02 06:06:18;;;;;;;0.00;0.00;;;11.70;99.90;;;;;;5021891;28;20470;-85
2022/10/02 06:09:03;;;;;;;0.00;0.00;;;11.70;99.90;;;;;;5021959;28;20545;-88
2022/10/02 06:11:36;;;;;;;0.00;0.00;;;11.90;99.90;;;;;;5038435;28;20488;-86
2022/10/02 06:14:20;;;;;;;0.00;0.00;;;11.90;99.90;;;;;;5027215;28;20900;-88
2022/10/02 06:16:58;;;;;;;0.00;0.00;;;12.00;99.90;;;;;;5020993;28;20430;-87
2022/10/02 06:19:36;;;;;;;0.00;0.00;;;12.00;99.90;;;;;;5030807;28;20476;-87
2022/10/02 06:22:15;;;;;;;0.00;0.00;;;12.10;99.90;;;;;;5032594;28;20529;-87
2022/10/02 06:24:48;;;;;;;0.00;0.00;;;12.10;99.90;;;;;;5023764;28;20996;-86
2022/10/02 06:27:32;;;;;;;0.00;0.00;;;12.10;99.90;;;;;;5040659;28;20459;-86
2022/10/02 06:30:04;;;;;;;0.00;0.00;;;12.10;99.90;;;;;;5030610;28;20488;-87
2022/10/02 06:32:38;;;;;;;0.00;0.00;;;12.10;99.90;;;;;;5038153;28;20554;-87
2022/10/02 06:35:12;;;;;;;0.00;0.00;;;12.10;99.90;;;;;;5038889;28;20481;-88
2022/10/02 06:37:51;;;;;;;0.00;0.00;;;12.10;99.90;;;;;;5040520;28;20454;-87
2022/10/02 06:40:49;;;;;;;0.00;0.00;;;12.10;99.90;;;;;;5039152;28;20516;-87
2022/10/02 06:43:58;;;;;;;0.00;0.00;;;12.00;99.90;;;;;;5040834;28;20480;-87
2022/10/02 06:46:40;;;;;;;0.00;0.00;;;12.10;99.90;;;;;;5025163;28;20496;-87
2022/10/02 06:49:23;;;;;;;0.00;0.00;;;12.10;99.90;;;;;;5038447;28;20477;-88
2022/10/02 06:52:11;;;;;;;0.00;0.00;;;12.10;99.90;;;;;;5042007;28;20833;-88
2022/10/02 06:54:52;;;;;;;0.00;0.00;;;12.10;99.90;;;;;;5040393;28;20544;-87
2022/10/02 06:57:39;;;;;;;0.00;0.00;;;12.20;99.90;;;;;;5038873;28;20947;-87
2022/10/02 07:00:15;;;;;;;0.00;0.00;;;12.30;99.90;;;;;;5041158;28;20788;-88
2022/10/02 07:03:18;;;;;;;0.00;0.00;;;12.30;99.90;;;;;;5040305;28;20471;-86
2022/10/02 07:06:09;;;;;;;0.00;0.00;;;12.30;99.90;;;;;;5046072;28;20500;-87
2022/10/02 07:09:04;;;;;;;0.00;0.00;;;12.40;99.90;;;;;;5038532;28;20819;-87
2022/10/02 07:11:43;;;;;;;0.00;0.00;;;12.40;99.90;;;;;;5038954;28;20939;-87
2022/10/02 07:14:37;;;;;;;;;;;;;;;;;;;;;
2022/10/02 07:17:22;;;;;;;0.00;0.00;;;12.50;99.90;;;;;;5038266;28;20514;-88
2022/10/02 07:20:18;;;;;;;0.00;0.00;;;12.60;99.90;;;;;;5019101;28;20478;-87
2022/10/02 07:23:03;;;;;;;0.00;0.00;;;12.50;99.90;;;;;;5018459;28;20830;-87
2022/10/02 07:25:49;;;;;;;0.00;0.00;;;12.60;99.90;;;;;;5020011;28;20466;-88
2022/10/02 07:28:25;;;;;;;0.00;0.00;;;12.70;99.90;;;;;;5020136;28;20537;-88
2022/10/02 07:31:00;;;;;;;0.00;0.00;;;12.80;99.90;;;;;;5025330;28;21051;-87
2022/10/02 07:33:45;;;;;;;0.00;0.00;;;13.00;99.90;;;;;;5032189;28;20432;-86
2022/10/02 07:36:22;;;;;;;0.00;0.00;;;13.10;99.90;;;;;;5036202;28;20418;-88
2022/10/02 07:39:11;;;;;;;0.00;0.00;;;13.30;99.90;;;;;;5027453;28;20437;-88
2022/10/02 07:42:18;;;;;;;0.00;0.00;;;13.30;99.90;;;;;;5022243;28;20502;-87
2022/10/02 07:45:15;;;;;;;0.00;0.00;;;13.30;99.90;;;;;;5020029;28;20441;-87
2022/10/02 07:48:03;;;;;;;0.00;0.00;;;13.20;99.90;;;;;;5019368;28;20936;-87
2022/10/02 07:50:38;;;;;;;0.00;0.00;;;13.20;99.90;;;;;;5017511;28;20969;-88
2022/10/02 07:53:15;;;;;;;0.00;0.00;;;13.20;99.90;;;;;;5018445;28;20783;-86
2022/10/02 07:55:55;;;;;;;0.00;0.00;;;13.20;99.90;;;;;;5033272;28;20499;-86
2022/10/02 07:58:35;;;;;;;0.00;0.00;;;13.10;99.90;;;;;;5036406;28;20939;-87
2022/10/02 08:01:08;;;;;;;0.00;0.00;;;13.10;99.90;;;;;;5035766;28;20461;-88
2022/10/02 08:03:42;;;;;;;0.00;0.00;;;13.10;99.90;;;;;;5039111;28;20457;-87
2022/10/02 08:06:11;;;;;;;0.00;0.00;;;13.20;99.90;;;;;;5037454;28;20480;-87
2022/10/02 08:08:46;;;;;;;0.00;0.00;;;13.40;99.90;;;;;;5036500;28;20456;-87
2022/10/02 08:11:20;;;;;;;0.00;0.00;;;13.50;99.90;;;;;;5037087;28;20947;-87
2022/10/02 08:13:55;;;;;;;0.00;0.00;;;13.70;99.90;;;;;;5038823;28;20437;-88
2022/10/02 08:16:39;;;;;;;0.00;0.00;;;13.80;99.90;;;;;;5036892;28;20469;-87
2022/10/02 08:19:15;;;;;;;0.00;0.00;;;13.80;99.90;;;;;;5037362;28;20448;-86
2022/10/02 08:21:57;;;;;;;0.00;0.00;;;14.00;99.90;;;;;;5037073;28;20478;-87
2022/10/02 08:24:30;;;;;;;0.00;0.00;;;14.30;99.90;;;;;;5039587;28;20429;-82
2022/10/02 08:27:02;;;;;;;0.00;0.00;;;14.60;99.90;;;;;;5039730;28;20503;-84
2022/10/02 08:29:39;;;;;;;0.00;0.00;;;14.80;99.90;;;;;;5039401;28;20480;-84
2022/10/02 08:32:11;;;;;;;0.00;0.00;;;14.70;99.90;;;;;;5039903;28;20437;-84
2022/10/02 08:34:40;;;;;;;0.00;0.00;;;14.50;99.90;;;;;;5039320;28;20429;-84
2022/10/02 08:37:28;;;;;;;0.00;0.00;;;14.40;99.90;;;;;;5041878;28;20521;-82
2022/10/02 08:40:32;;;;;;;0.00;0.00;;;14.20;99.90;;;;;;5024040;28;20497;-83
2022/10/02 08:43:22;;;;;;;0.00;0.00;;;14.10;99.90;;;;;;5019408;28;20990;-85
2022/10/02 08:46:22;;;;;;;0.00;0.00;;;13.90;99.90;;;;;;5021913;28;20988;-84
2022/10/02 08:49:33;;;;;;;0.00;0.00;;;13.80;99.90;;;;;;5037805;28;20813;-83
2022/10/02 08:52:25;;;;;;;0.00;0.00;;;13.70;99.90;;;;;;5015741;28;20457;-84
2022/10/02 08:55:36;;;;;;;0.00;0.00;;;13.60;99.90;;;;;;5033302;28;20471;-84
2022/10/02 08:58:56;;;;;;;0.00;0.00;;;13.60;99.90;;;;;;5021067;28;20784;-84
2022/10/02 09:02:08;;;;;;;0.00;0.00;;;13.60;99.90;;;;;;5019232;28;20458;-84
2022/10/02 09:05:18;;;;;;;0.00;0.00;;;13.50;99.90;;;;;;5019371;28;20469;-83
2022/10/02 09:08:32;;;;;;;0.00;0.00;;;13.40;99.90;;;;;;5019158;28;20434;-84
2022/10/02 09:11:31;;;;;;;0.00;0.00;;;13.30;99.90;;;;;;4958484;28;20483;-84
2022/10/02 09:14:19;;;;;;;0.00;0.00;;;13.20;99.90;;;;;;4958210;29;20823;-84
2022/10/02 09:17:13;;;;;;;0.00;0.00;;;13.10;99.90;;;;;;5012557;28;20810;-84
2022/10/02 09:19:55;;;;;;;0.00;0.00;;;13.20;99.90;;;;;;5038112;28;20465;-84
2022/10/02 09:22:51;;;;;;;0.00;0.00;;;13.30;99.90;;;;;;5038243;28;20460;-84
2022/10/02 09:25:31;;;;;;;0.00;0.00;;;13.40;99.90;;;;;;5038732;28;20449;-84
2022/10/02 09:28:32;;;;;;;0.00;0.00;;;13.60;99.90;;;;;;5039169;28;20445;-84
2022/10/02 09:31:44;;;;;;;0.00;0.00;;;13.90;99.90;;;;;;5038891;28;20480;-84
2022/10/02 09:34:51;;;;;;;0.00;0.00;;;14.00;99.90;;;;;;5028321;28;20445;-86
2022/10/02 09:37:49;;;;;;;0.00;0.00;;;14.00;99.90;;;;;;5038962;28;20436;-85
2022/10/02 09:40:53;;;;;;;0.00;0.00;;;13.90;99.90;;;;;;5038673;28;20469;-83
2022/10/02 09:43:57;;;;;;;0.00;0.00;;;13.80;99.90;;;;;;5041809;28;20445;-86
2022/10/02 09:47:08;;;;;;;0.00;0.00;;;13.80;99.90;;;;;;5000610;28;20482;-85
2022/10/02 09:50:19;;;;;;;0.00;0.00;;;13.90;99.90;;;;;;5032176;28;20469;-83
2022/10/02 09:53:24;;;;;;;0.00;0.00;;;13.80;99.90;;;;;;4940387;29;20991;-84
2022/10/02 09:56:21;;;;;;;0.00;0.00;;;13.80;99.90;;;;;;5024805;28;20519;-86
2022/10/02 09:59:20;;;;;;;0.00;0.00;;;13.70;99.90;;;;;;4985184;28;20442;-87
2022/10/02 10:02:20;;;;;;;0.00;0.00;;;13.80;99.90;;;;;;5018388;28;20959;-87
2022/10/02 10:05:33;;;;;;;0.00;0.00;;;14.00;99.90;;;;;;5025545;28;20429;-87
2022/10/02 10:08:30;;;;;;;0.00;0.00;;;14.10;99.90;;;;;;5027734;28;20474;-87
2022/10/02 10:11:12;;;;;;;0.00;0.00;;;14.10;99.90;;;;;;5029599;28;20479;-87
2022/10/02 10:14:13;;;;;;;0.00;0.00;;;14.00;99.90;;;;;;5027404;28;20971;-87
2022/10/02 10:17:23;;;;;;;0.00;0.00;;;14.00;99.90;;;;;;5028616;28;20434;-86
2022/10/02 10:20:22;;;;;;;0.00;0.00;;;14.10;99.90;;;;;;4961840;28;20452;-88
2022/10/02 10:23:26;;;;;;;0.00;0.00;;;14.10;99.90;;;;;;5024358;28;20450;-88
2022/10/02 10:26:15;;;;;;;0.00;0.00;;;14.10;99.90;;;;;;5032623;28;20466;-87
2022/10/02 10:29:07;;;;;;;0.00;0.00;;;14.20;99.90;;;;;;5035203;28;20448;-86
2022/10/02 10:32:27;;;;;;;0.00;0.00;;;14.20;99.90;;;;;;5031866;28;20440;-84
2022/10/02 10:35:23;;;;;;;0.00;0.00;;;14.30;99.90;;;;;;5031153;28;20476;-85
2022/10/02 10:41:00;;;;;;;0.00;0.00;;;14.40;99.90;;;;;;5034988;28;20481;-85
2022/10/02 10:44:02;;;;;;;0.00;0.00;;;14.50;99.90;;;;;;5032010;28;20426;-86
2022/10/02 10:46:59;;;;;;;0.00;0.00;;;14.50;99.90;;;;;;5036585;28;20462;-85
2022/10/02 10:49:46;;;;;;;0.00;0.00;;;14.60;99.90;;;;;;5034423;28;20477;-86
2022/10/02 10:52:24;;;;;;;0.00;0.00;;;14.80;99.90;;;;;;5031319;28;20503;-85
2022/10/02 10:55:05;;;;;;;0.00;0.00;;;15.10;99.90;;;;;;5027048;28;20445;-85
2022/10/02 10:58:08;;;;;;;0.00;0.00;;;15.40;99.90;;;;;;5026593;28;20436;-86
2022/10/02 11:00:48;;;;;;;0.00;0.00;;;15.70;99.90;;;;;;5031999;28;20534;-85
2022/10/02 11:03:52;;;;;;;0.00;0.00;;;16.00;99.90;;;;;;5029523;28;20461;-86
2022/10/02 11:06:59;;;;;;;0.00;0.00;;;16.20;99.90;;;;;;5017262;28;20436;-85
2022/10/02 11:09:55;;;;;;;0.00;0.00;;;16.50;99.90;;;;;;5001827;28;20473;-85
2022/10/02 11:12:55;;;;;;;0.00;0.00;;;16.60;99.90;;;;;;5026654;28;20445;-84
2022/10/02 11:15:58;;;;;;;0.00;0.00;;;16.60;99.90;;;;;;5005245;28;20449;-84
2022/10/02 11:18:43;;;;;;;0.00;0.00;;;16.60;99.90;;;;;;5033990;28;20507;-88
2022/10/02 11:21:36;;;;;;;0.00;0.00;;;16.50;99.90;;;;;;5037708;28;20475;-89
2022/10/02 11:24:24;;;;;;;0.00;0.00;;;16.40;99.90;;;;;;5028412;28;20505;-88
2022/10/02 11:27:20;;;;;;;0.00;0.00;;;16.40;99.90;;;;;;5018327;28;20470;-85
2022/10/02 11:30:19;;;;;;;0.00;0.00;;;16.50;99.90;;;;;;5017435;28;20957;-88
2022/10/02 11:33:12;;;;;;;0.00;0.00;;;16.60;99.90;;;;;;5019225;28;20441;-89
2022/10/02 11:35:59;;;;;;;0.00;0.00;;;16.60;99.90;;;;;;5021543;28;20457;-87
2022/10/02 11:38:53;;;;;;;0.00;0.00;;;16.60;99.90;;;;;;5020157;28;20525;-88
2022/10/02 11:41:45;;;;;;;0.00;0.00;;;16.60;99.90;;;;;;5042432;28;20487;-87
2022/10/02 11:44:26;;;;;;;0.00;0.00;;;16.70;99.90;;;;;;5023880;28;20449;-89
2022/10/02 11:47:33;;;;;;;0.00;0.00;;;16.70;99.90;;;;;;5058438;28;20485;-87
2022/10/02 11:50:46;;;;;;;0.00;0.00;;;16.70;99.90;;;;;;5052526;28;20490;-87
2022/10/02 11:53:38;;;;;;;0.00;0.00;;;16.60;99.90;;;;;;5041462;28;20457;-86
2022/10/02 11:56:28;;;;;;;0.00;0.00;;;16.30;99.90;;;;;;5037144;28;20449;-87
2022/10/02 11:59:14;;;;;;;0.00;0.00;;;15.90;99.90;;;;;;5044606;28;20531;-90
2022/10/02 12:02:05;;;;;;;0.00;0.00;;;15.50;99.90;;;;;;5047543;28;20509;-89
2022/10/02 12:08:46;;;;;;;0.00;0.00;;;14.60;99.90;;;;;;5020351;28;20478;-88
2022/10/02 12:11:50;;;;;;;0.00;0.00;;;14.10;99.90;;;;;;5038069;28;20490;-88
2022/10/02 12:27:42;;;;;;;0.00;0.00;;;14.20;99.90;;;;;;5003638;28;20474;-70
2022/10/02 12:30:13;;;;;;;0.00;0.00;;;14.50;99.90;;;;;;5033363;28;20526;-70
2022/10/02 12:33:06;;;;;;;0.00;0.00;;;14.80;99.90;;;;;;5035508;28;20526;-70
2022/10/02 12:35:43;;;;;;;0.00;0.00;;;15.10;99.90;;;;;;5033660;28;20859;-70
2022/10/02 12:38:22;;;;;;;0.00;0.00;;;15.40;99.90;;;;;;5035548;28;20452;-70
2022/10/02 12:41:02;;;;;;;0.00;0.00;;;15.60;99.90;;;;;;5034448;28;20518;-71
2022/10/02 12:43:56;;;;;;;0.00;0.00;;;15.80;99.90;;;;;;5034558;28;20843;-71
2022/10/02 12:46:39;;;;;;;0.00;0.00;;;15.90;99.90;;;;;;5035524;28;20448;-71
2022/10/02 12:49:24;;;;;;;0.00;0.00;;;15.90;99.90;;;;;;5035432;28;20480;-70
2022/10/02 12:52:26;;;;;;;0.00;0.00;;;16.10;99.90;;;;;;5035488;28;20499;-70
2022/10/02 12:55:22;;;;;;;0.00;0.00;;;16.30;99.90;;;;;;5012874;28;20573;-70
2022/10/02 12:58:02;;;;;;;0.00;0.00;;;16.40;99.90;;;;;;5033377;28;20870;-70
2022/10/02 13:00:43;;;;;;;0.00;0.00;;;16.50;99.90;;;;;;5035673;28;20518;-70
2022/10/02 13:03:47;;;;;;;0.00;0.00;;;16.50;99.90;;;;;;5035050;28;20820;-70
2022/10/02 13:06:55;;;;;;;0.00;0.00;;;16.30;99.90;;;;;;5027472;28;20523;-70
2022/10/02 13:09:34;;;;;;;0.00;0.00;;;16.00;99.90;;;;;;5034498;28;20481;-70
2022/10/02 13:12:12;;;;;;;0.00;0.00;;;15.80;99.90;;;;;;5034337;28;20449;-70
2022/10/02 13:15:00;;;;;;;0.00;0.00;;;15.60;99.90;;;;;;5034741;28;20562;-70
2022/10/02 13:17:37;;;;;;;0.00;0.00;;;15.40;99.90;;;;;;5034671;28;20445;-69
2022/10/02 13:20:20;;;;;;;0.00;0.00;;;15.30;99.90;;;;;;5033180;28;20527;-70
2022/10/02 13:22:58;;;;;;;0.00;0.00;;;15.10;99.90;;;;;;5026209;28;20838;-70
2022/10/02 13:25:44;;;;;;;0.00;0.00;;;15.00;99.90;;;;;;5031697;28;20452;-70
2022/10/02 13:28:42;;;;;;;0.00;0.00;;;14.90;99.90;;;;;;5032663;28;20538;-70
2022/10/02 13:31:21;;;;;;;0.00;0.00;;;15.00;99.90;;;;;;5034464;28;20465;-70
2022/10/02 13:34:18;;;;;;;0.00;0.00;;;14.90;99.90;;;;;;5033224;28;20481;-73
2022/10/02 13:36:59;;;;;;;0.00;0.00;;;15.00;99.90;;;;;;5029508;28;20458;-70
2022/10/02 13:39:38;;;;;;;0.00;0.00;;;15.00;99.90;;;;;;5034102;28;20491;-70
2022/10/02 13:42:22;;;;;;;0.00;0.00;;;15.00;99.90;;;;;;5034863;28;20452;-70
2022/10/02 13:45:00;;;;;;;0.00;0.00;;;15.10;99.90;;;;;;5034685;28;20432;-70
2022/10/02 13:47:39;;;;;;;0.00;0.00;;;15.10;99.90;;;;;;5034342;28;20936;-70
2022/10/02 13:50:33;;;;;;;0.00;0.00;;;15.00;99.90;;;;;;5024115;28;20531;-70
2022/10/02 13:53:33;;;;;;;0.00;0.00;;;15.00;99.90;;;;;;5024275;28;20805;-68
2022/10/02 13:56:08;;;;;;;0.00;0.00;;;15.10;99.90;;;;;;5014230;28;20456;-69
2022/10/02 13:58:58;;;;;;;0.00;0.00;;;15.20;99.90;;;;;;5028402;28;20503;-69
2022/10/02 14:01:35;;;;;;;0.00;0.00;;;15.30;99.90;;;;;;5031367;28;20516;-69
2022/10/02 14:04:28;;;;;;;0.00;0.00;;;15.30;99.90;;;;;;5031782;28;20828;-69
2022/10/02 14:07:08;;;;;;;0.00;0.00;;;15.40;99.90;;;;;;5033200;28;20449;-69
2022/10/02 14:09:51;;;;;;;0.00;0.00;;;15.30;99.90;;;;;;5033620;28;20534;-71
2022/10/02 14:12:45;;;;;;;0.00;0.00;;;15.30;99.90;;;;;;5034215;28;20522;-71
2022/10/02 14:15:24;;;;;;;0.00;0.00;;;15.50;99.90;;;;;;5034404;28;20429;-70
2022/10/02 14:18:13;;;;;;;0.00;0.00;;;15.50;99.90;;;;;;5033452;28;20433;-67
2022/10/02 14:20:51;;;;;;;0.00;0.00;;;15.50;99.90;;;;;;5033205;28;20473;-72
2022/10/02 14:23:43;;;;;;;0.00;0.00;;;15.40;99.90;;;;;;5032473;28;20449;-70
2022/10/02 14:26:20;;;;;;;0.00;0.00;;;15.40;99.90;;;;;;5028465;28;20519;-71
2022/10/02 14:29:00;;;;;;;0.00;0.00;;;15.30;99.90;;;;;;5025955;28;20825;-71
2022/10/02 14:32:01;;;;;;;0.00;0.00;;;15.30;99.90;;;;;;5027908;28;20441;-70
2022/10/02 14:35:01;;;;;;;0.00;0.00;;;15.20;99.90;;;;;;5027717;28;20465;-70
2022/10/02 14:37:54;;;;;;;0.00;0.00;;;15.20;99.90;;;;;;4998962;28;20495;-69
2022/10/02 14:40:29;;;;;;;0.00;0.00;;;15.20;99.90;;;;;;5030711;28;20527;-72
2022/10/02 14:43:19;;;;;;;0.00;0.00;;;15.30;99.90;;;;;;5028644;28;20453;-69
2022/10/02 14:46:02;;;;;;;0.00;0.00;;;15.30;99.90;;;;;;5020400;28;20469;-71